Terminal Aerodrome Forecast
Issued by NWS Sioux Falls, SD

Home | Current Version | Previous Version | Graphics & Text | Print | Product List | Glossary On
Versions: 1 2 3 4 5 6 7 8 9 10 11 12 13 14 15 16 17 18 19 20 21 22
000
FTUS43 KFSD 231636 AAC
TAFFSD
TAF AMD
KFSD 231636Z 2317/2412 15015G23KT P6SM BKN018
     FM232000 16014G22KT 4SM -DZ BR OVC012
     FM232200 16015KT 3SM -DZ BR OVC007
     FM240300 09006KT 4SM -SHRA VCTS OVC008CB
     FM240700 09007KT 2SM -SHRA OVC005=

USA.gov is the U.S. government's official web portal to all federal, state and local government web resources and services.